Blackville, Arkansas
Current Conditions -  °F | °C
As of 8:56 PM on Friday 21 Nov 2014 (Local Time) from KM19 Reporting Station
Light Rain Light Rain  
Wind Chill: 44°   Ceiling: 7000
Heat Index: 44°   Visibility: 5mi
Dew Point: 44°   Wind: 0mph
Humidity: 100%   Direction: NA
Pressure: 30.28"   Gusts: NA
Location:  35.5678°N, 91.2073°W
Report Text: KM19 220256Z AUTO 00000KT 5SM -RA BR FEW055 BKN070 OVC095 07/07 A3028 RMK AO2 58004 60001 T00660066 RAB41 P0000 SLP255
Loading
Personal Weather Stations






























Interactive Weather Map New forecast layout! Learn more

10-Day Weather Forecast

Advertisements
Track Severe Weather on mobile